Time;durP1;ratioP1;P1;durP2;ratioP2;P2;SDS_P1;SDS_P2;PMS_P1;PMS_P2;Temp;Humidity;BMP_temperature;BMP_pressure;BME280_temperature;BME280_humidity;BME280_pressure;Samples;Min_cycle;Max_cycle;Signal;HPM_P1;HPM_P2
2022/11/30 00:01:15;;;;;;;203.70;49.17;;;8.60;99.90;;;;;;5014932;28;20446;-73
2022/11/30 00:03:43;;;;;;;194.52;47.35;;;7.90;99.90;;;;;;5013695;28;20049;-73
2022/11/30 00:06:13;;;;;;;191.10;47.25;;;7.90;99.90;;;;;;5015080;28;20046;-72
2022/11/30 00:08:41;;;;;;;201.70;46.97;;;7.90;99.90;;;;;;5014972;28;20046;-73
2022/11/30 00:11:11;;;;;;;190.35;46.83;;;7.90;99.90;;;;;;5014031;28;20073;-73
2022/11/30 00:13:38;;;;;;;174.98;44.90;;;7.90;99.90;;;;;;5015024;28;20381;-73
2022/11/30 00:16:07;;;;;;;182.30;45.25;;;7.90;99.90;;;;;;5013920;28;20050;-74
2022/11/30 00:18:35;;;;;;;173.70;43.50;;;9.80;99.90;;;;;;5014538;28;20042;-73
2022/11/30 00:21:05;;;;;;;185.25;45.53;;;7.90;99.90;;;;;;5014504;28;20046;-73
2022/11/30 00:23:37;;;;;;;194.10;45.88;;;7.80;99.90;;;;;;4996357;28;20046;-73
2022/11/30 00:26:07;;;;;;;204.30;45.42;;;7.80;99.90;;;;;;4997938;28;20069;-73
2022/11/30 00:28:36;;;;;;;190.80;45.65;;;7.80;99.90;;;;;;5015128;28;20580;-73
2022/11/30 00:31:06;;;;;;;182.32;44.05;;;7.80;99.90;;;;;;5013362;28;20481;-73
2022/11/30 00:33:36;;;;;;;185.75;45.97;;;7.70;99.90;;;;;;4997776;28;20354;-73
2022/11/30 00:36:06;;;;;;;205.85;47.42;;;7.70;99.90;;;;;;5013623;28;20042;-73
2022/11/30 00:38:34;;;;;;;190.57;45.92;;;7.70;99.90;;;;;;5016203;28;20052;-74
2022/11/30 00:41:02;;;;;;;198.30;46.20;;;7.70;99.90;;;;;;5018502;28;20053;-73
2022/11/30 00:43:30;;;;;;;190.77;45.50;;;7.60;99.90;;;;;;4999993;28;20389;-73
2022/11/30 00:45:58;;;;;;;189.45;46.03;;;8.30;99.90;;;;;;5018309;28;20365;-74
2022/11/30 00:48:25;;;;;;;183.30;44.28;;;7.60;99.90;;;;;;5017963;28;20048;-73
2022/11/30 00:50:53;;;;;;;175.98;43.67;;;7.60;99.90;;;;;;5016860;28;20454;-73
2022/11/30 00:53:21;;;;;;;193.02;46.33;;;9.90;99.90;;;;;;5017843;28;20042;-73
2022/11/30 00:55:48;;;;;;;169.10;45.22;;;7.60;99.90;;;;;;5001231;28;20056;-73
2022/11/30 00:58:16;;;;;;;176.48;46.72;;;8.20;99.90;;;;;;5016676;28;20042;-73
2022/11/30 01:00:44;;;;;;;180.63;44.88;;;7.60;99.90;;;;;;5018049;28;20064;-73
2022/11/30 01:03:12;;;;;;;176.07;45.83;;;7.60;99.90;;;;;;4999751;28;20377;-73
2022/11/30 01:05:42;;;;;;;160.35;45.53;;;9.40;99.90;;;;;;5018353;28;20364;-73
2022/11/30 01:08:10;;;;;;;161.35;45.17;;;7.70;99.90;;;;;;5017659;28;20046;-73
2022/11/30 01:10:40;;;;;;;166.18;44.60;;;7.60;99.90;;;;;;5016673;28;20060;-73
2022/11/30 01:13:10;;;;;;;162.13;44.67;;;9.20;99.90;;;;;;5017681;28;20503;-73
2022/11/30 01:15:40;;;;;;;153.10;43.15;;;7.60;99.90;;;;;;5017786;28;20046;-73
2022/11/30 01:18:09;;;;;;;178.20;45.80;;;7.60;99.90;;;;;;5016342;28;20061;-73
2022/11/30 01:20:42;;;;;;;153.00;43.78;;;7.70;99.90;;;;;;5017554;28;20050;-73
2022/11/30 01:23:10;;;;;;;149.52;42.00;;;7.70;99.90;;;;;;5016536;28;20054;-73
2022/11/30 01:25:37;;;;;;;;;;;7.70;99.90;;;;;;5000996;28;20050;-73
2022/11/30 01:28:05;;;;;;;150.90;39.83;;;7.70;99.90;;;;;;5017351;28;19921;-73
2022/11/30 01:30:33;;;;;;;151.75;42.40;;;7.70;99.90;;;;;;4982828;28;20058;-73
2022/11/30 01:33:04;;;;;;;149.75;41.40;;;7.70;99.90;;;;;;5017102;28;20034;-73
2022/11/30 01:35:32;;;;;;;149.30;42.13;;;7.70;99.90;;;;;;5017819;28;20049;-73
2022/11/30 01:38:00;;;;;;;165.52;41.70;;;7.70;99.90;;;;;;4999004;28;20041;-73
2022/11/30 01:40:27;;;;;;;139.10;39.75;;;7.70;99.90;;;;;;5029928;28;20041;-72
2022/11/30 01:42:56;;;;;;;151.75;40.55;;;7.80;99.90;;;;;;5035524;28;20053;-73
2022/11/30 01:45:23;;;;;;;140.85;40.15;;;7.70;99.90;;;;;;5036636;28;20042;-73
2022/11/30 01:47:55;;;;;;;135.65;41.00;;;7.70;99.90;;;;;;5037239;28;20053;-73
2022/11/30 01:50:33;;;;;;;148.60;39.42;;;7.80;99.90;;;;;;5035037;28;20045;-73
2022/11/30 01:53:02;;;;;;;;;;;7.70;99.90;;;;;;5037087;28;20495;-73
2022/11/30 01:55:41;;;;;;;148.60;38.70;;;7.70;99.90;;;;;;5035697;28;19921;-73
2022/11/30 01:58:18;;;;;;;155.60;40.20;;;7.70;99.90;;;;;;5035395;28;20060;-73
2022/11/30 02:00:46;;;;;;;171.48;42.05;;;7.60;99.90;;;;;;5036592;28;20056;-73
2022/11/30 02:03:38;;;;;;;151.57;40.65;;;7.90;99.90;;;;;;5034762;28;20049;-73
2022/11/30 02:06:07;;;;;;;153.32;39.67;;;7.60;99.90;;;;;;5035515;28;20053;-73
2022/11/30 02:08:34;;;;;;;158.23;42.03;;;7.60;99.90;;;;;;5036614;28;20048;-73
2022/11/30 02:11:04;;;;;;;175.57;44.45;;;7.60;99.90;;;;;;5035134;28;20364;-74
2022/11/30 02:13:38;;;;;;;156.48;41.13;;;7.60;99.90;;;;;;5035468;28;20049;-73
2022/11/30 02:16:27;;;;;;;169.40;44.05;;;9.30;99.90;;;;;;5035329;28;20054;-73
2022/11/30 02:19:23;;;;;;;161.02;43.30;;;7.60;99.90;;;;;;5036734;28;20045;-73
2022/11/30 02:22:16;;;;;;;150.57;42.92;;;7.60;99.90;;;;;;5036175;28;20050;-73
2022/11/30 02:25:15;;;;;;;156.73;40.80;;;7.60;99.90;;;;;;5034806;28;20049;-73
2022/11/30 02:27:55;;;;;;;154.88;39.60;;;7.50;99.90;;;;;;5036005;28;20041;-73
2022/11/30 02:30:23;;;;;;;148.77;39.83;;;7.40;99.90;;;;;;5034936;28;20052;-73
2022/11/30 02:33:01;;;;;;;150.80;40.47;;;7.40;99.90;;;;;;5035684;28;20474;-73
2022/11/30 02:35:33;;;;;;;154.13;39.08;;;7.30;99.90;;;;;;5035877;28;20053;-73
2022/11/30 02:38:03;;;;;;;152.68;39.17;;;7.20;99.90;;;;;;5034751;28;20357;-73
2022/11/30 02:40:30;;;;;;;171.25;40.00;;;7.10;99.90;;;;;;5018804;28;20049;-73
2022/11/30 02:43:00;;;;;;;165.75;41.90;;;7.00;99.90;;;;;;4997725;28;20046;-73
2022/11/30 02:45:43;;;;;;;182.20;41.58;;;6.90;99.90;;;;;;5015867;28;20056;-73
2022/11/30 02:48:17;;;;;;;159.95;40.38;;;6.90;99.90;;;;;;4998890;28;20053;-73
2022/11/30 02:50:56;;;;;;;171.48;36.72;;;6.90;99.90;;;;;;5015021;28;20042;-73
2022/11/30 02:53:24;;;;;;;164.25;39.83;;;6.80;99.90;;;;;;5015677;28;20480;-72
2022/11/30 02:55:53;;;;;;;155.70;39.47;;;7.20;99.90;;;;;;4998668;28;20403;-73
2022/11/30 02:58:21;;;;;;;195.48;41.40;;;6.70;99.90;;;;;;5016025;28;20469;-73
2022/11/30 03:00:49;;;;;;;169.70;40.90;;;6.70;99.90;;;;;;5015089;28;20041;-73
2022/11/30 03:03:16;;;;;;;183.90;41.42;;;6.70;99.90;;;;;;5014456;28;20487;-73
2022/11/30 03:05:44;;;;;;;193.55;40.25;;;6.70;99.90;;;;;;5015713;28;20042;-73
2022/11/30 03:08:11;;;;;;;178.77;40.17;;;6.70;99.90;;;;;;5015733;28;20045;-73
2022/11/30 03:10:38;;;;;;;164.45;40.83;;;6.70;99.90;;;;;;5014628;28;20041;-73
2022/11/30 03:13:06;;;;;;;164.38;40.05;;;6.90;99.90;;;;;;5015422;28;20376;-73
2022/11/30 03:15:34;;;;;;;194.07;41.33;;;6.70;99.90;;;;;;5015785;28;20365;-73
2022/11/30 03:18:02;;;;;;;;;;;6.80;99.90;;;;;;5014634;28;20369;-73
2022/11/30 03:20:30;;;;;;;193.85;40.08;;;6.80;99.90;;;;;;5015422;28;19925;-73
2022/11/30 03:23:01;;;;;;;183.52;41.22;;;6.80;99.90;;;;;;5014304;28;20054;-73
2022/11/30 03:25:28;;;;;;;217.65;43.22;;;6.90;99.90;;;;;;5015639;28;20065;-73
2022/11/30 03:27:56;;;;;;;210.05;43.65;;;7.00;99.90;;;;;;5014559;28;20061;-73
2022/11/30 03:30:23;;;;;;;182.35;41.40;;;6.90;99.90;;;;;;5014056;28;20464;-73
2022/11/30 03:32:51;;;;;;;169.45;41.20;;;7.00;99.90;;;;;;5015017;28;20057;-73
2022/11/30 03:35:19;;;;;;;168.48;39.42;;;7.00;99.90;;;;;;4998079;28;20467;-73
2022/11/30 03:37:46;;;;;;;170.35;39.50;;;7.00;99.90;;;;;;5013919;28;20372;-73
2022/11/30 03:40:14;;;;;;;179.25;41.13;;;7.10;99.90;;;;;;5015641;28;20473;-74
2022/11/30 03:42:42;;;;;;;163.98;40.47;;;7.10;99.90;;;;;;5013974;28;20369;-73
2022/11/30 03:45:10;;;;;;;167.88;40.10;;;7.20;99.90;;;;;;5014802;28;20053;-73
2022/11/30 03:47:37;;;;;;;183.15;39.70;;;7.20;99.90;;;;;;4998027;28;20065;-73
2022/11/30 03:50:05;;;;;;;154.82;38.17;;;7.20;99.90;;;;;;5013901;28;20484;-73
2022/11/30 03:52:33;;;;;;;162.85;38.50;;;7.20;99.90;;;;;;5015215;28;20384;-73
2022/11/30 03:55:00;;;;;;;164.35;40.35;;;7.30;99.90;;;;;;5014953;28;20061;-73
2022/11/30 03:57:28;;;;;;;154.60;40.22;;;7.30;99.90;;;;;;5013935;28;20046;-73
2022/11/30 03:59:55;;;;;;;153.02;39.30;;;7.50;99.90;;;;;;4998010;28;20046;-73
2022/11/30 04:02:23;;;;;;;153.77;38.03;;;7.30;99.90;;;;;;5014689;28;20104;-73
2022/11/30 04:04:50;;;;;;;142.80;38.35;;;7.30;99.90;;;;;;5013611;28;20045;-73
2022/11/30 04:07:18;;;;;;;147.85;37.83;;;7.40;99.90;;;;;;4997973;28;20050;-73
2022/11/30 04:09:45;;;;;;;153.00;39.08;;;7.40;99.90;;;;;;5013996;28;20469;-73
2022/11/30 04:12:13;;;;;;;153.63;36.95;;;7.40;99.90;;;;;;4998580;28;20342;-72
2022/11/30 04:14:40;;;;;;;161.07;37.75;;;7.40;99.90;;;;;;5018797;28;20038;-73
2022/11/30 04:17:08;;;;;;;165.27;38.95;;;7.40;99.90;;;;;;5017430;28;20050;-73
2022/11/30 04:19:35;;;;;;;146.27;37.75;;;7.90;99.90;;;;;;5018511;28;20053;-73
2022/11/30 04:22:03;;;;;;;143.43;38.15;;;7.50;99.90;;;;;;5018788;28;20049;-73
2022/11/30 04:24:30;;;;;;;155.02;38.58;;;8.20;99.90;;;;;;5017350;28;20056;-73
2022/11/30 04:26:58;;;;;;;146.05;38.00;;;7.50;99.90;;;;;;5018708;28;20342;-73
2022/11/30 04:29:25;;;;;;;144.02;35.72;;;7.50;99.90;;;;;;5017420;28;20057;-73
2022/11/30 04:31:52;;;;;;;149.43;36.07;;;7.50;99.90;;;;;;5001300;28;20046;-73
2022/11/30 04:34:20;;;;;;;152.52;36.17;;;7.40;99.90;;;;;;5018286;28;20046;-73
2022/11/30 04:36:47;;;;;;;138.68;36.05;;;7.40;99.90;;;;;;5017497;28;20480;-73
2022/11/30 04:39:15;;;;;;;146.00;37.42;;;7.50;99.90;;;;;;5018242;28;20052;-74
2022/11/30 04:41:42;;;;;;;159.80;37.78;;;7.90;99.90;;;;;;5018300;28;20054;-73
2022/11/30 04:44:10;;;;;;;136.95;35.83;;;7.50;99.90;;;;;;4999644;28;20515;-73
2022/11/30 04:46:37;;;;;;;150.45;36.58;;;7.60;99.90;;;;;;5018020;28;20056;-73
2022/11/30 04:49:05;;;;;;;145.10;36.33;;;7.50;99.90;;;;;;5018403;28;20050;-73
2022/11/30 04:51:33;;;;;;;149.80;35.13;;;7.70;99.90;;;;;;4999650;28;20384;-73
2022/11/30 04:54:00;;;;;;;144.88;35.92;;;7.50;99.90;;;;;;5018139;28;20384;-73
2022/11/30 04:56:27;;;;;;;137.13;34.40;;;7.40;99.90;;;;;;5016882;28;20069;-73
2022/11/30 04:58:55;;;;;;;139.38;35.40;;;9.40;99.90;;;;;;5018024;28;20153;-73
2022/11/30 05:01:22;;;;;;;146.20;35.67;;;7.40;99.90;;;;;;4984495;28;20054;-73
2022/11/30 05:03:50;;;;;;;151.98;35.90;;;8.50;99.90;;;;;;4999586;28;20069;-73
2022/11/30 05:06:17;;;;;;;136.05;34.08;;;7.40;99.90;;;;;;5018097;28;20046;-73
2022/11/30 05:08:45;;;;;;;158.88;35.90;;;8.50;99.90;;;;;;5017590;28;20041;-73
2022/11/30 05:11:12;;;;;;;154.45;36.53;;;7.40;99.90;;;;;;5016468;28;20042;-73
2022/11/30 05:13:40;;;;;;;156.90;36.30;;;7.40;99.90;;;;;;5017588;28;20472;-73
2022/11/30 05:16:09;;;;;;;157.73;36.53;;;7.40;99.90;;;;;;5016516;28;20061;-73
2022/11/30 05:18:37;;;;;;;162.18;35.63;;;7.40;99.90;;;;;;5017416;28;20058;-73
2022/11/30 05:21:04;;;;;;;165.95;37.10;;;7.40;99.90;;;;;;5017417;28;20068;-73
2022/11/30 05:23:32;;;;;;;169.60;37.05;;;7.40;99.90;;;;;;5015733;28;20065;-73
2022/11/30 05:26:01;;;;;;;169.77;38.60;;;7.40;99.90;;;;;;5017267;28;20392;-73
2022/11/30 05:28:29;;;;;;;180.52;38.00;;;7.40;99.90;;;;;;5017329;28;20058;-74
2022/11/30 05:31:04;;;;;;;190.48;38.28;;;7.40;99.90;;;;;;5016361;28;20065;-73
2022/11/30 05:33:32;;;;;;;173.20;38.05;;;7.40;99.90;;;;;;5017253;28;20042;-73
2022/11/30 05:36:00;;;;;;;192.23;39.03;;;7.40;99.90;;;;;;5016162;28;20041;-73
2022/11/30 05:38:33;;;;;;;179.23;38.25;;;7.40;99.90;;;;;;4984399;28;20050;-73
2022/11/30 05:41:01;;;;;;;186.05;39.60;;;7.40;99.90;;;;;;5000517;28;20050;-73
2022/11/30 05:43:29;;;;;;;196.05;36.67;;;7.40;99.90;;;;;;5015892;28;20057;-72
2022/11/30 05:46:04;;;;;;;176.43;37.58;;;7.40;99.90;;;;;;5017214;28;20045;-72
2022/11/30 05:48:32;;;;;;;197.00;38.22;;;7.40;99.90;;;;;;5017135;28;20042;-73
2022/11/30 05:51:25;;;;;;;170.45;37.10;;;7.40;99.90;;;;;;5015703;28;20046;-73
2022/11/30 05:53:53;;;;;;;185.80;37.28;;;7.30;99.90;;;;;;5013981;28;20049;-73
2022/11/30 05:56:21;;;;;;;183.13;37.97;;;7.40;99.90;;;;;;4998678;28;20057;-73
2022/11/30 05:58:48;;;;;;;177.82;37.42;;;7.40;99.90;;;;;;5016880;28;20053;-73
2022/11/30 06:01:20;;;;;;;186.20;37.22;;;7.40;99.90;;;;;;5016554;28;20053;-73
2022/11/30 06:03:49;;;;;;;176.18;35.47;;;7.40;99.90;;;;;;5015843;28;20046;-73
2022/11/30 06:06:17;;;;;;;;;;;7.40;99.90;;;;;;5017052;28;20468;-73
2022/11/30 06:08:46;;;;;;;180.48;35.05;;;7.30;99.90;;;;;;5016580;28;19921;-73
2022/11/30 06:11:14;;;;;;;184.32;35.15;;;7.80;99.90;;;;;;5015006;28;20061;-73
2022/11/30 06:13:41;;;;;;;177.30;35.75;;;7.40;99.90;;;;;;5016378;28;20060;-73
2022/11/30 06:16:09;;;;;;;198.05;37.10;;;8.60;99.90;;;;;;5016016;28;20362;-73
2022/11/30 06:18:37;;;;;;;177.57;35.90;;;8.30;99.90;;;;;;4983075;28;20046;-72
2022/11/30 06:21:08;;;;;;;171.90;33.10;;;7.40;99.90;;;;;;5016201;28;20049;-72
2022/11/30 06:23:36;;;;;;;160.13;31.85;;;7.30;99.90;;;;;;5015363;28;20045;-73
2022/11/30 06:26:04;;;;;;;;;;;7.40;99.90;;;;;;4999820;28;20065;-73
2022/11/30 06:28:32;;;;;;;162.30;30.38;;;7.30;99.90;;;;;;5016298;28;20336;-73
2022/11/30 06:31:01;;;;;;;159.07;32.28;;;7.30;99.90;;;;;;5015052;28;20053;-73
2022/11/30 06:33:28;;;;;;;179.57;33.67;;;7.30;99.90;;;;;;5015989;28;20457;-73
2022/11/30 06:35:56;;;;;;;170.52;32.88;;;7.30;99.90;;;;;;5015091;28;20061;-73
2022/11/30 06:38:24;;;;;;;194.20;33.80;;;7.30;99.90;;;;;;4999138;28;20373;-73
2022/11/30 06:40:52;;;;;;;179.38;33.55;;;8.10;99.90;;;;;;5016082;28;20469;-72
2022/11/30 06:43:20;;;;;;;162.82;30.33;;;7.30;99.90;;;;;;5015165;28;20045;-72
2022/11/30 06:45:47;;;;;;;158.57;28.63;;;7.30;99.90;;;;;;5016349;28;20465;-73
2022/11/30 06:48:15;;;;;;;142.05;28.48;;;7.30;99.90;;;;;;5015751;28;20057;-73
2022/11/30 06:50:42;;;;;;;124.38;27.95;;;8.90;99.90;;;;;;5014715;28;20369;-73
2022/11/30 06:53:16;;;;;;;137.02;28.77;;;7.30;99.90;;;;;;4998494;28;20369;-72
2022/11/30 06:55:43;;;;;;;175.73;31.75;;;7.70;99.90;;;;;;5016221;28;20479;-73
2022/11/30 06:58:11;;;;;;;193.95;33.38;;;7.50;99.90;;;;;;5014589;28;20057;-73
2022/11/30 07:00:39;;;;;;;183.25;33.67;;;7.20;99.90;;;;;;5015684;28;20373;-73
2022/11/30 07:03:06;;;;;;;182.75;32.15;;;7.20;99.90;;;;;;4997640;28;20042;-72
2022/11/30 07:05:39;;;;;;;181.00;31.75;;;7.20;99.90;;;;;;4998702;28;20050;-73
2022/11/30 07:08:07;;;;;;;185.70;33.08;;;7.20;99.90;;;;;;5015389;28;20050;-72
2022/11/30 07:10:41;;;;;;;189.48;32.90;;;7.20;99.90;;;;;;5014306;28;20053;-73
2022/11/30 07:13:14;;;;;;;227.55;34.70;;;7.20;99.90;;;;;;5015661;28;20121;-74
2022/11/30 07:15:42;;;;;;;237.20;33.88;;;7.20;99.90;;;;;;5015289;28;20065;-73
2022/11/30 07:18:11;;;;;;;197.98;33.05;;;7.20;99.90;;;;;;5014436;28;20480;-73
2022/11/30 07:20:38;;;;;;;329.73;36.70;;;7.20;99.90;;;;;;5015191;28;20042;-73
2022/11/30 07:26:06;;;;;;;200.30;33.70;;;7.10;99.90;;;;;;5015184;28;20045;-73
2022/11/30 07:28:50;;;;;;;218.27;33.03;;;7.70;99.90;;;;;;4981828;28;20383;-73
2022/11/30 07:31:22;;;;;;;174.43;30.67;;;7.10;99.90;;;;;;5014021;28;20042;-73
2022/11/30 07:33:50;;;;;;;181.13;30.73;;;7.10;99.90;;;;;;4998136;28;20057;-72
2022/11/30 07:36:19;;;;;;;211.90;31.98;;;7.10;99.90;;;;;;4997348;28;20050;-73
2022/11/30 07:38:47;;;;;;;181.43;32.40;;;7.20;99.90;;;;;;5015072;28;20058;-73
2022/11/30 07:41:15;;;;;;;249.50;31.48;;;7.50;99.90;;;;;;5015271;28;20056;-74
2022/11/30 07:43:42;;;;;;;322.67;31.83;;;7.10;99.90;;;;;;4996848;28;20050;-73
2022/11/30 07:46:12;;;;;;;164.60;29.63;;;7.10;99.90;;;;;;5015250;28;20050;-73
2022/11/30 07:48:41;;;;;;;249.40;28.60;;;9.20;99.90;;;;;;5014855;28;20045;-74
2022/11/30 07:51:14;;;;;;;215.75;26.52;;;7.40;99.90;;;;;;5014140;28;20061;-72
2022/11/30 07:53:42;;;;;;;153.60;26.05;;;7.00;99.90;;;;;;5014778;28;20054;-73
2022/11/30 07:56:16;;;;;;;176.25;24.17;;;7.80;99.90;;;;;;4997189;28;20049;-73
2022/11/30 07:58:43;;;;;;;185.98;26.38;;;7.10;99.90;;;;;;5014890;28;20469;-72
2022/11/30 08:01:14;;;;;;;176.30;24.92;;;7.10;99.90;;;;;;5014777;28;20054;-74
2022/11/30 08:03:42;;;;;;;146.27;23.30;;;7.10;99.90;;;;;;5013850;28;20076;-73
2022/11/30 08:06:12;;;;;;;129.35;22.17;;;7.10;99.90;;;;;;5014987;28;20050;-72
2022/11/30 08:08:43;;;;;;;108.82;20.13;;;7.10;99.90;;;;;;4998362;28;20046;-73
2022/11/30 08:11:14;;;;;;;129.60;22.17;;;7.10;99.90;;;;;;5013411;28;20038;-75
2022/11/30 08:13:42;;;;;;;89.28;15.90;;;7.10;99.90;;;;;;5014777;28;20050;-75
2022/11/30 08:16:11;;;;;;;;;;;7.10;99.90;;;;;;5011052;28;20046;-75
2022/11/30 08:18:39;;;;;;;106.15;18.90;;;7.00;99.90;;;;;;5017003;28;19921;-75
2022/11/30 08:21:08;;;;;;;;;;;7.90;99.90;;;;;;5034724;28;20056;-74
2022/11/30 08:23:44;;;;;;;120.15;18.38;;;7.00;99.90;;;;;;5033226;28;20351;-75
2022/11/30 08:26:14;;;;;;;171.25;22.23;;;7.00;99.90;;;;;;5034406;28;20056;-74
2022/11/30 08:28:43;;;;;;;115.03;19.85;;;7.00;99.90;;;;;;5017102;28;20045;-75
2022/11/30 08:31:22;;;;;;;172.98;22.58;;;7.00;99.90;;;;;;5015354;28;20056;-74
2022/11/30 08:33:57;;;;;;;113.65;20.50;;;8.90;99.90;;;;;;5017003;28;20046;-75
2022/11/30 08:36:26;;;;;;;130.73;19.60;;;7.00;99.90;;;;;;5032849;28;20057;-75
2022/11/30 08:38:55;;;;;;;175.80;19.23;;;7.00;99.90;;;;;;5033746;28;20415;-75
2022/11/30 08:41:23;;;;;;;185.55;22.33;;;7.70;99.90;;;;;;5033959;28;20368;-73
2022/11/30 08:43:51;;;;;;;244.68;21.30;;;7.00;99.90;;;;;;5032710;28;20049;-74
2022/11/30 08:46:20;;;;;;;;;;;7.30;99.90;;;;;;5016993;28;20502;-74
2022/11/30 08:49:07;;;;;;;158.77;21.67;;;7.00;99.90;;;;;;5033843;28;20332;-74
2022/11/30 08:51:53;;;;;;;223.32;23.58;;;7.10;99.90;;;;;;5033839;28;20364;-74
2022/11/30 08:54:44;;;;;;;126.95;24.75;;;7.10;99.90;;;;;;5033671;28;20034;-73
2022/11/30 08:57:18;;;;;;;146.02;24.23;;;7.10;99.90;;;;;;5032859;28;20049;-73
2022/11/30 08:59:46;;;;;;;116.88;21.85;;;7.10;99.90;;;;;;5035149;28;20493;-74
2022/11/30 09:02:16;;;;;;;;;;;7.10;99.90;;;;;;5037712;28;20045;-73
2022/11/30 09:04:47;;;;;;;82.00;18.00;;;7.20;99.90;;;;;;5018819;28;19932;-74
2022/11/30 09:07:15;;;;;;;77.78;19.02;;;7.10;99.90;;;;;;5037420;28;20042;-74
2022/11/30 09:09:42;;;;;;;83.78;20.67;;;7.20;99.90;;;;;;5002728;28;20053;-74
2022/11/30 09:12:10;;;;;;;91.30;21.40;;;7.20;99.90;;;;;;5016604;28;20384;-73
2022/11/30 09:14:38;;;;;;;89.22;21.90;;;7.30;99.90;;;;;;5036963;28;20349;-73
2022/11/30 09:17:05;;;;;;;79.00;21.83;;;7.30;99.90;;;;;;5035923;28;20053;-73
2022/11/30 09:19:33;;;;;;;99.00;22.63;;;7.30;99.90;;;;;;5037859;28;20050;-73
2022/11/30 09:22:00;;;;;;;85.15;23.05;;;7.20;99.90;;;;;;5036467;28;20053;-74
2022/11/30 09:24:28;;;;;;;66.15;18.30;;;7.30;99.90;;;;;;5036414;28;20057;-73
2022/11/30 09:26:56;;;;;;;64.85;18.95;;;7.30;99.90;;;;;;5037347;28;20045;-74
2022/11/30 09:29:23;;;;;;;69.97;19.25;;;7.40;99.90;;;;;;5036599;28;20050;-77
2022/11/30 09:31:51;;;;;;;77.95;20.38;;;7.50;99.90;;;;;;5031981;28;20056;-76
2022/11/30 09:34:20;;;;;;;91.05;20.25;;;7.50;99.90;;;;;;5037020;28;20048;-78
2022/11/30 09:36:50;;;;;;;75.63;19.20;;;7.50;99.90;;;;;;5024755;28;20046;-77
2022/11/30 09:39:17;;;;;;;75.78;19.65;;;7.60;99.90;;;;;;5026775;28;20049;-77
2022/11/30 09:42:03;;;;;;;76.60;19.88;;;8.30;99.90;;;;;;5055908;28;20060;-78
2022/11/30 09:44:49;;;;;;;56.30;17.05;;;7.60;99.90;;;;;;5056034;28;20052;-77
2022/11/30 09:47:40;;;;;;;59.28;17.90;;;7.60;99.90;;;;;;5056279;28;20044;-78
2022/11/30 09:50:19;;;;;;;54.78;17.02;;;7.70;99.90;;;;;;5055138;28;20048;-77
2022/11/30 09:53:02;;;;;;;65.63;17.92;;;7.70;99.90;;;;;;5056814;28;20068;-76
2022/11/30 09:55:35;;;;;;;56.40;17.13;;;7.70;99.90;;;;;;5055924;28;20045;-76
2022/11/30 09:58:04;;;;;;;62.67;20.42;;;8.50;99.90;;;;;;5055122;28;20444;-77
2022/11/30 10:00:33;;;;;;;56.40;18.35;;;9.10;99.90;;;;;;5056248;28;20045;-76
2022/11/30 10:03:03;;;;;;;65.28;21.42;;;9.90;99.90;;;;;;5056064;28;20049;-76
2022/11/30 10:05:44;;;;;;;63.63;21.05;;;7.80;99.90;;;;;;5056262;28;20386;-76
2022/11/30 10:08:26;;;;;;;62.08;21.52;;;7.80;99.90;;;;;;5055874;28;20103;-77
2022/11/30 10:11:09;;;;;;;63.13;21.35;;;7.90;99.90;;;;;;5054054;28;20052;-69
2022/11/30 10:14:04;;;;;;;72.88;24.02;;;7.90;99.90;;;;;;5056198;28;20033;-78
2022/11/30 10:17:15;;;;;;;58.03;20.98;;;7.90;99.90;;;;;;5055030;28;20048;-78
2022/11/30 10:19:49;;;;;;;68.20;23.67;;;8.00;99.90;;;;;;5040520;28;20060;-77
2022/11/30 10:23:03;;;;;;;50.80;19.13;;;8.10;99.90;;;;;;5055722;28;20052;-78
2022/11/30 10:25:54;;;;;;;48.97;18.23;;;8.20;99.90;;;;;;5055110;28;20056;-78
2022/11/30 10:28:45;;;;;;;43.13;15.73;;;8.20;99.90;;;;;;5055946;28;20352;-77
2022/11/30 10:31:15;;;;;;;42.60;17.10;;;8.20;99.90;;;;;;5054144;28;20041;-78
2022/11/30 10:33:53;;;;;;;38.40;16.17;;;8.30;99.90;;;;;;5054971;28;20368;-77
2022/11/30 10:36:32;;;;;;;48.33;18.40;;;8.30;99.90;;;;;;5053702;28;20037;-80
2022/11/30 10:39:15;;;;;;;50.28;20.02;;;8.30;99.90;;;;;;5050078;28;20475;-78
2022/11/30 10:42:01;;;;;;;43.55;17.80;;;9.20;99.90;;;;;;5035625;28;20053;-77
2022/11/30 10:44:43;;;;;;;43.45;17.38;;;8.30;99.90;;;;;;5017470;28;20057;-76
2022/11/30 10:47:22;;;;;;;50.50;20.38;;;8.30;99.90;;;;;;5035738;28;20061;-77
2022/11/30 10:49:51;;;;;;;;;;;8.30;99.90;;;;;;5018025;28;20057;-78
2022/11/30 10:52:27;;;;;;;40.67;17.20;;;8.30;99.90;;;;;;5035469;28;19921;-78
2022/11/30 10:54:56;;;;;;;52.97;20.30;;;9.20;99.90;;;;;;5018393;28;20376;-76
2022/11/30 10:57:32;;;;;;;45.03;17.98;;;8.20;99.90;;;;;;5018272;28;20045;-78
2022/11/30 11:00:04;;;;;;;48.50;20.20;;;8.40;99.90;;;;;;5018056;28;20484;-77
2022/11/30 11:02:38;;;;;;;46.67;20.27;;;8.40;99.90;;;;;;5018039;28;20054;-78
2022/11/30 11:05:22;;;;;;;40.25;19.65;;;8.40;99.90;;;;;;5035101;28;20057;-77
2022/11/30 11:08:17;;;;;;;45.75;19.90;;;8.40;99.90;;;;;;5017984;28;20050;-78
2022/11/30 11:10:50;;;;;;;44.53;20.88;;;8.40;99.90;;;;;;5034635;28;20045;-78
2022/11/30 11:13:37;;;;;;;43.78;19.77;;;8.40;99.90;;;;;;5035163;28;20376;-76
2022/11/30 11:16:08;;;;;;;43.45;21.63;;;8.50;99.90;;;;;;5033985;28;20046;-76
2022/11/30 11:18:49;;;;;;;78.75;22.75;;;8.50;99.90;;;;;;5035035;28;20060;-76
2022/11/30 11:21:19;;;;;;;47.97;21.17;;;10.30;99.90;;;;;;5034405;28;20383;-79
2022/11/30 11:23:50;;;;;;;41.30;20.52;;;10.60;99.90;;;;;;5033693;28;20061;-77
2022/11/30 11:26:22;;;;;;;44.55;19.77;;;10.50;99.90;;;;;;5034817;28;20045;-77
2022/11/30 11:28:52;;;;;;;43.00;20.35;;;8.60;99.90;;;;;;5034801;28;20042;-75
2022/11/30 11:31:47;;;;;;;42.53;21.88;;;8.60;99.90;;;;;;5034223;28;20041;-76
2022/11/30 11:34:30;;;;;;;47.20;22.73;;;8.60;99.90;;;;;;5017813;28;20041;-77
2022/11/30 11:37:12;;;;;;;41.65;21.42;;;8.70;99.90;;;;;;5033924;28;20491;-78
2022/11/30 11:39:40;;;;;;;48.33;22.77;;;8.70;99.90;;;;;;5034471;28;20496;-77
2022/11/30 11:42:22;;;;;;;41.65;21.05;;;8.70;99.90;;;;;;5034626;28;20461;-77
2022/11/30 11:44:53;;;;;;;46.17;22.95;;;9.50;99.90;;;;;;5033710;28;20386;-77
2022/11/30 11:47:39;;;;;;;40.50;20.70;;;8.90;99.90;;;;;;5034513;28;20041;-77
2022/11/30 11:50:23;;;;;;;35.45;18.60;;;10.20;99.90;;;;;;5033316;28;20060;-77
2022/11/30 11:53:14;;;;;;;45.78;21.17;;;8.80;99.90;;;;;;5034388;28;20037;-77
2022/11/30 11:55:44;;;;;;;41.70;20.45;;;8.80;99.90;;;;;;5017799;28;20360;-78
2022/11/30 11:58:18;;;;;;;50.45;22.30;;;8.90;99.90;;;;;;5016115;28;20049;-77
2022/11/30 12:00:50;;;;;;;40.95;21.35;;;10.00;99.90;;;;;;5034687;28;20372;-77
2022/11/30 12:03:49;;;;;;;48.85;22.15;;;9.60;99.90;;;;;;5033284;28;20053;-78
2022/11/30 12:06:18;;;;;;;49.78;23.88;;;9.10;99.90;;;;;;5017186;28;20053;-79
2022/11/30 12:08:55;;;;;;;45.45;23.05;;;10.80;99.90;;;;;;5034109;28;20045;-77
2022/11/30 12:11:30;;;;;;;48.35;21.83;;;9.10;99.90;;;;;;5033469;28;20038;-78
2022/11/30 12:13:58;;;;;;;38.45;19.63;;;9.10;99.90;;;;;;5034548;28;20045;-79
2022/11/30 12:16:56;;;;;;;40.42;21.20;;;9.10;99.90;;;;;;5033427;28;20050;-80
2022/11/30 12:19:55;;;;;;;36.85;18.90;;;9.10;99.90;;;;;;5033958;28;20050;-73
2022/11/30 12:22:33;;;;;;;43.08;20.17;;;9.10;99.90;;;;;;5034260;28;20049;-73
2022/11/30 12:25:33;;;;;;;37.08;17.77;;;9.20;99.90;;;;;;5017597;28;20050;-80
2022/11/30 12:28:32;;;;;;;38.65;19.15;;;9.10;99.90;;;;;;5029397;28;20045;-76
2022/11/30 12:31:16;;;;;;;42.80;21.02;;;10.10;99.90;;;;;;5011038;28;20045;-78
2022/11/30 12:33:46;;;;;;;42.50;21.60;;;9.60;99.90;;;;;;5017973;28;20491;-75
2022/11/30 12:36:42;;;;;;;43.17;20.95;;;9.20;99.90;;;;;;5018296;28;20073;-79
2022/11/30 12:39:40;;;;;;;37.47;19.33;;;9.20;99.90;;;;;;5037069;28;20077;-77
2022/11/30 12:42:17;;;;;;;33.95;17.25;;;9.20;99.90;;;;;;5038032;28;20045;-77
2022/11/30 12:44:44;;;;;;;34.60;17.07;;;9.60;99.90;;;;;;5019806;28;20345;-77
2022/11/30 12:47:27;;;;;;;34.15;16.77;;;10.60;99.90;;;;;;5020251;28;20760;-76
2022/11/30 12:50:29;;;;;;;31.30;16.38;;;9.20;99.90;;;;;;5019654;28;20076;-75
2022/11/30 12:53:08;;;;;;;30.13;16.63;;;9.20;99.90;;;;;;5037796;28;20045;-76
2022/11/30 12:55:54;;;;;;;33.00;17.77;;;9.30;99.90;;;;;;5020412;28;20057;-74
2022/11/30 12:58:41;;;;;;;35.92;17.90;;;9.30;99.90;;;;;;5036581;28;20060;-77
2022/11/30 13:01:37;;;;;;;37.25;18.30;;;9.30;99.90;;;;;;5020241;28;20049;-76
2022/11/30 13:04:26;;;;;;;35.90;18.17;;;9.30;99.90;;;;;;5008861;28;20064;-76